sensor_id;sensor_type;location;lat;lon;timestamp;P1;durP1;ratioP1;P2;durP2;ratioP2
13566;SDS011;6855;48.112;11.298;2023-05-25T00:01:07;10.83;;;4.17;;
13566;SDS011;6855;48.112;11.298;2023-05-25T00:03:35;11.77;;;3.80;;
13566;SDS011;6855;48.112;11.298;2023-05-25T00:06:04;5.63;;;2.83;;
13566;SDS011;6855;48.112;11.298;2023-05-25T00:08:32;5.93;;;3.30;;
13566;SDS011;6855;48.112;11.298;2023-05-25T00:11:00;8.80;;;4.17;;
13566;SDS011;6855;48.112;11.298;2023-05-25T00:13:27;7.20;;;3.70;;
13566;SDS011;6855;48.112;11.298;2023-05-25T00:15:54;10.60;;;3.27;;
13566;SDS011;6855;48.112;11.298;2023-05-25T00:18:21;12.30;;;3.60;;
13566;SDS011;6855;48.112;11.298;2023-05-25T00:20:49;7.83;;;3.80;;
13566;SDS011;6855;48.112;11.298;2023-05-25T00:23:18;15.20;;;3.40;;
13566;SDS011;6855;48.112;11.298;2023-05-25T00:25:46;14.53;;;3.40;;
13566;SDS011;6855;48.112;11.298;2023-05-25T00:28:14;9.10;;;3.63;;
13566;SDS011;6855;48.112;11.298;2023-05-25T00:30:41;9.77;;;4.30;;
13566;SDS011;6855;48.112;11.298;2023-05-25T00:33:08;5.80;;;3.50;;
13566;SDS011;6855;48.112;11.298;2023-05-25T00:35:35;10.03;;;4.30;;
13566;SDS011;6855;48.112;11.298;2023-05-25T00:38:03;5.10;;;3.70;;
13566;SDS011;6855;48.112;11.298;2023-05-25T00:40:30;9.10;;;3.80;;
13566;SDS011;6855;48.112;11.298;2023-05-25T00:42:58;12.63;;;3.43;;
13566;SDS011;6855;48.112;11.298;2023-05-25T00:45:25;6.87;;;3.47;;
13566;SDS011;6855;48.112;11.298;2023-05-25T00:47:53;7.23;;;3.47;;
13566;SDS011;6855;48.112;11.298;2023-05-25T00:50:22;8.73;;;3.50;;
13566;SDS011;6855;48.112;11.298;2023-05-25T00:52:55;7.37;;;3.60;;
13566;SDS011;6855;48.112;11.298;2023-05-25T00:55:23;11.43;;;4.33;;
13566;SDS011;6855;48.112;11.298;2023-05-25T00:57:54;9.10;;;3.80;;
13566;SDS011;6855;48.112;11.298;2023-05-25T01:00:24;7.50;;;3.40;;
13566;SDS011;6855;48.112;11.298;2023-05-25T01:02:52;7.00;;;3.57;;
13566;SDS011;6855;48.112;11.298;2023-05-25T01:05:21;9.20;;;3.97;;
13566;SDS011;6855;48.112;11.298;2023-05-25T01:07:53;13.37;;;4.37;;
13566;SDS011;6855;48.112;11.298;2023-05-25T01:10:21;11.57;;;4.10;;
13566;SDS011;6855;48.112;11.298;2023-05-25T01:12:48;7.90;;;3.87;;
13566;SDS011;6855;48.112;11.298;2023-05-25T01:15:17;7.90;;;2.90;;
13566;SDS011;6855;48.112;11.298;2023-05-25T01:17:45;6.67;;;3.60;;
13566;SDS011;6855;48.112;11.298;2023-05-25T01:20:17;8.83;;;3.80;;
13566;SDS011;6855;48.112;11.298;2023-05-25T01:22:46;15.17;;;3.90;;
13566;SDS011;6855;48.112;11.298;2023-05-25T01:25:19;8.83;;;3.50;;
13566;SDS011;6855;48.112;11.298;2023-05-25T01:27:49;7.63;;;3.80;;
13566;SDS011;6855;48.112;11.298;2023-05-25T01:30:17;7.40;;;3.23;;
13566;SDS011;6855;48.112;11.298;2023-05-25T01:32:45;6.00;;;3.13;;
13566;SDS011;6855;48.112;11.298;2023-05-25T01:35:13;12.47;;;3.97;;
13566;SDS011;6855;48.112;11.298;2023-05-25T01:37:43;7.40;;;3.60;;
13566;SDS011;6855;48.112;11.298;2023-05-25T01:40:13;9.30;;;3.40;;
13566;SDS011;6855;48.112;11.298;2023-05-25T01:42:40;10.43;;;3.17;;
13566;SDS011;6855;48.112;11.298;2023-05-25T01:45:08;9.00;;;3.47;;
13566;SDS011;6855;48.112;11.298;2023-05-25T01:47:39;6.80;;;3.33;;
13566;SDS011;6855;48.112;11.298;2023-05-25T01:50:10;7.37;;;2.97;;
13566;SDS011;6855;48.112;11.298;2023-05-25T01:52:39;9.10;;;4.23;;
13566;SDS011;6855;48.112;11.298;2023-05-25T01:55:09;3.90;;;2.97;;
13566;SDS011;6855;48.112;11.298;2023-05-25T01:57:39;15.93;;;4.00;;
13566;SDS011;6855;48.112;11.298;2023-05-25T02:00:09;5.73;;;3.40;;
13566;SDS011;6855;48.112;11.298;2023-05-25T02:02:38;13.30;;;3.60;;
13566;SDS011;6855;48.112;11.298;2023-05-25T02:05:06;5.63;;;3.40;;
13566;SDS011;6855;48.112;11.298;2023-05-25T02:07:35;9.37;;;4.20;;
13566;SDS011;6855;48.112;11.298;2023-05-25T02:10:02;8.23;;;3.30;;
13566;SDS011;6855;48.112;11.298;2023-05-25T02:12:29;7.70;;;3.63;;
13566;SDS011;6855;48.112;11.298;2023-05-25T02:14:58;7.63;;;3.40;;
13566;SDS011;6855;48.112;11.298;2023-05-25T02:17:25;10.30;;;3.87;;
13566;SDS011;6855;48.112;11.298;2023-05-25T02:19:54;9.13;;;4.50;;
13566;SDS011;6855;48.112;11.298;2023-05-25T02:22:21;13.07;;;3.80;;
13566;SDS011;6855;48.112;11.298;2023-05-25T02:24:48;8.93;;;3.77;;
13566;SDS011;6855;48.112;11.298;2023-05-25T02:27:15;15.20;;;3.47;;
13566;SDS011;6855;48.112;11.298;2023-05-25T02:29:43;10.07;;;4.10;;
13566;SDS011;6855;48.112;11.298;2023-05-25T02:32:12;7.60;;;4.10;;
13566;SDS011;6855;48.112;11.298;2023-05-25T02:34:40;12.10;;;4.63;;
13566;SDS011;6855;48.112;11.298;2023-05-25T02:37:07;9.73;;;4.90;;
13566;SDS011;6855;48.112;11.298;2023-05-25T02:39:34;14.37;;;4.83;;
13566;SDS011;6855;48.112;11.298;2023-05-25T02:42:01;12.23;;;4.30;;
13566;SDS011;6855;48.112;11.298;2023-05-25T02:44:29;11.20;;;4.23;;
13566;SDS011;6855;48.112;11.298;2023-05-25T02:46:56;8.00;;;3.90;;
13566;SDS011;6855;48.112;11.298;2023-05-25T02:49:25;11.33;;;4.40;;
13566;SDS011;6855;48.112;11.298;2023-05-25T02:51:53;10.20;;;4.43;;
13566;SDS011;6855;48.112;11.298;2023-05-25T02:54:21;7.10;;;4.17;;
13566;SDS011;6855;48.112;11.298;2023-05-25T02:56:48;8.03;;;4.40;;
13566;SDS011;6855;48.112;11.298;2023-05-25T02:59:15;15.40;;;4.57;;
13566;SDS011;6855;48.112;11.298;2023-05-25T03:01:42;10.90;;;4.20;;
13566;SDS011;6855;48.112;11.298;2023-05-25T03:04:09;13.63;;;4.50;;
13566;SDS011;6855;48.112;11.298;2023-05-25T03:06:38;10.73;;;4.40;;
13566;SDS011;6855;48.112;11.298;2023-05-25T03:09:05;10.27;;;4.13;;
13566;SDS011;6855;48.112;11.298;2023-05-25T03:11:33;10.87;;;4.70;;
13566;SDS011;6855;48.112;11.298;2023-05-25T03:14:00;13.53;;;5.67;;
13566;SDS011;6855;48.112;11.298;2023-05-25T03:16:28;8.50;;;4.27;;
13566;SDS011;6855;48.112;11.298;2023-05-25T03:18:55;7.10;;;4.63;;
13566;SDS011;6855;48.112;11.298;2023-05-25T03:21:24;15.90;;;4.80;;
13566;SDS011;6855;48.112;11.298;2023-05-25T03:23:53;7.87;;;4.80;;
13566;SDS011;6855;48.112;11.298;2023-05-25T03:26:20;14.33;;;4.50;;
13566;SDS011;6855;48.112;11.298;2023-05-25T03:28:50;10.30;;;4.70;;
13566;SDS011;6855;48.112;11.298;2023-05-25T03:31:17;13.23;;;5.17;;
13566;SDS011;6855;48.112;11.298;2023-05-25T03:33:44;15.40;;;5.47;;
13566;SDS011;6855;48.112;11.298;2023-05-25T03:36:12;10.33;;;4.80;;
13566;SDS011;6855;48.112;11.298;2023-05-25T03:38:41;12.53;;;5.13;;
13566;SDS011;6855;48.112;11.298;2023-05-25T03:41:09;7.20;;;4.43;;
13566;SDS011;6855;48.112;11.298;2023-05-25T03:43:37;13.00;;;5.53;;
13566;SDS011;6855;48.112;11.298;2023-05-25T03:46:04;9.87;;;4.07;;
13566;SDS011;6855;48.112;11.298;2023-05-25T03:48:31;21.03;;;4.50;;
13566;SDS011;6855;48.112;11.298;2023-05-25T03:50:58;11.00;;;5.00;;
13566;SDS011;6855;48.112;11.298;2023-05-25T03:53:25;11.37;;;5.13;;
13566;SDS011;6855;48.112;11.298;2023-05-25T03:55:52;6.03;;;4.33;;
13566;SDS011;6855;48.112;11.298;2023-05-25T03:58:21;8.50;;;5.20;;
13566;SDS011;6855;48.112;11.298;2023-05-25T04:00:48;8.23;;;4.70;;
13566;SDS011;6855;48.112;11.298;2023-05-25T04:03:16;12.87;;;6.20;;
13566;SDS011;6855;48.112;11.298;2023-05-25T04:05:44;11.40;;;5.13;;
13566;SDS011;6855;48.112;11.298;2023-05-25T04:08:12;14.83;;;6.50;;
13566;SDS011;6855;48.112;11.298;2023-05-25T04:10:42;11.20;;;6.23;;
13566;SDS011;6855;48.112;11.298;2023-05-25T04:13:09;9.23;;;5.67;;
13566;SDS011;6855;48.112;11.298;2023-05-25T04:15:37;16.00;;;6.47;;
13566;SDS011;6855;48.112;11.298;2023-05-25T04:18:05;14.07;;;5.70;;
13566;SDS011;6855;48.112;11.298;2023-05-25T04:20:32;15.07;;;6.30;;
13566;SDS011;6855;48.112;11.298;2023-05-25T04:22:59;12.77;;;7.50;;
13566;SDS011;6855;48.112;11.298;2023-05-25T04:25:26;17.43;;;7.40;;
13566;SDS011;6855;48.112;11.298;2023-05-25T04:27:53;14.67;;;7.47;;
13566;SDS011;6855;48.112;11.298;2023-05-25T04:30:21;15.70;;;8.00;;
13566;SDS011;6855;48.112;11.298;2023-05-25T04:32:50;13.03;;;7.93;;
13566;SDS011;6855;48.112;11.298;2023-05-25T04:35:18;12.20;;;8.37;;
13566;SDS011;6855;48.112;11.298;2023-05-25T04:37:46;17.67;;;8.47;;
13566;SDS011;6855;48.112;11.298;2023-05-25T04:40:13;17.20;;;8.00;;
13566;SDS011;6855;48.112;11.298;2023-05-25T04:42:40;11.17;;;7.60;;
13566;SDS011;6855;48.112;11.298;2023-05-25T04:45:09;13.53;;;8.17;;
13566;SDS011;6855;48.112;11.298;2023-05-25T04:47:41;11.13;;;7.77;;
13566;SDS011;6855;48.112;11.298;2023-05-25T04:50:10;11.90;;;7.50;;
13566;SDS011;6855;48.112;11.298;2023-05-25T04:52:38;14.13;;;8.80;;
13566;SDS011;6855;48.112;11.298;2023-05-25T04:55:05;15.70;;;8.17;;
13566;SDS011;6855;48.112;11.298;2023-05-25T04:57:32;18.33;;;8.53;;
13566;SDS011;6855;48.112;11.298;2023-05-25T05:00:00;16.20;;;8.00;;
13566;SDS011;6855;48.112;11.298;2023-05-25T05:02:27;13.70;;;8.67;;
13566;SDS011;6855;48.112;11.298;2023-05-25T05:04:54;16.63;;;9.77;;
13566;SDS011;6855;48.112;11.298;2023-05-25T05:07:23;16.20;;;8.93;;
13566;SDS011;6855;48.112;11.298;2023-05-25T05:09:50;18.50;;;9.77;;
13566;SDS011;6855;48.112;11.298;2023-05-25T05:12:17;21.43;;;8.90;;
13566;SDS011;6855;48.112;11.298;2023-05-25T05:14:44;16.50;;;8.53;;
13566;SDS011;6855;48.112;11.298;2023-05-25T05:17:11;16.20;;;8.93;;
13566;SDS011;6855;48.112;11.298;2023-05-25T05:19:39;16.87;;;9.60;;
13566;SDS011;6855;48.112;11.298;2023-05-25T05:22:06;12.03;;;8.23;;
13566;SDS011;6855;48.112;11.298;2023-05-25T05:24:35;17.53;;;9.40;;
13566;SDS011;6855;48.112;11.298;2023-05-25T05:27:02;17.30;;;9.27;;
13566;SDS011;6855;48.112;11.298;2023-05-25T05:29:29;15.90;;;9.67;;
13566;SDS011;6855;48.112;11.298;2023-05-25T05:31:58;13.40;;;8.97;;
13566;SDS011;6855;48.112;11.298;2023-05-25T05:34:25;16.63;;;9.30;;
13566;SDS011;6855;48.112;11.298;2023-05-25T05:36:53;17.00;;;9.80;;
13566;SDS011;6855;48.112;11.298;2023-05-25T05:39:20;16.03;;;9.33;;
13566;SDS011;6855;48.112;11.298;2023-05-25T05:41:48;14.77;;;8.87;;
13566;SDS011;6855;48.112;11.298;2023-05-25T05:44:16;18.60;;;10.83;;
13566;SDS011;6855;48.112;11.298;2023-05-25T05:46:43;16.63;;;9.10;;
13566;SDS011;6855;48.112;11.298;2023-05-25T05:49:10;16.60;;;9.27;;
13566;SDS011;6855;48.112;11.298;2023-05-25T05:51:37;15.27;;;9.20;;
13566;SDS011;6855;48.112;11.298;2023-05-25T05:54:07;13.70;;;9.73;;
13566;SDS011;6855;48.112;11.298;2023-05-25T05:56:34;13.90;;;8.30;;
13566;SDS011;6855;48.112;11.298;2023-05-25T05:59:02;26.13;;;10.03;;
13566;SDS011;6855;48.112;11.298;2023-05-25T06:01:30;16.63;;;9.37;;
13566;SDS011;6855;48.112;11.298;2023-05-25T06:03:57;13.43;;;9.10;;
13566;SDS011;6855;48.112;11.298;2023-05-25T06:06:24;12.90;;;8.60;;
13566;SDS011;6855;48.112;11.298;2023-05-25T06:08:51;14.53;;;8.93;;
13566;SDS011;6855;48.112;11.298;2023-05-25T06:11:19;16.17;;;8.90;;
13566;SDS011;6855;48.112;11.298;2023-05-25T06:13:46;16.07;;;9.67;;
13566;SDS011;6855;48.112;11.298;2023-05-25T06:16:14;12.83;;;7.83;;
13566;SDS011;6855;48.112;11.298;2023-05-25T06:18:42;13.80;;;9.20;;
13566;SDS011;6855;48.112;11.298;2023-05-25T06:21:11;11.20;;;8.90;;
13566;SDS011;6855;48.112;11.298;2023-05-25T06:23:39;19.23;;;9.23;;
13566;SDS011;6855;48.112;11.298;2023-05-25T06:26:06;13.20;;;8.20;;
13566;SDS011;6855;48.112;11.298;2023-05-25T06:28:33;12.53;;;9.20;;
13566;SDS011;6855;48.112;11.298;2023-05-25T06:31:02;12.03;;;8.53;;
13566;SDS011;6855;48.112;11.298;2023-05-25T06:33:31;12.13;;;8.57;;
13566;SDS011;6855;48.112;11.298;2023-05-25T06:35:58;17.80;;;9.30;;
13566;SDS011;6855;48.112;11.298;2023-05-25T06:38:26;19.63;;;8.47;;
13566;SDS011;6855;48.112;11.298;2023-05-25T06:40:53;12.10;;;7.70;;
13566;SDS011;6855;48.112;11.298;2023-05-25T06:43:21;13.77;;;7.73;;
13566;SDS011;6855;48.112;11.298;2023-05-25T06:45:48;15.23;;;8.67;;
13566;SDS011;6855;48.112;11.298;2023-05-25T06:48:15;14.50;;;8.87;;
13566;SDS011;6855;48.112;11.298;2023-05-25T06:50:44;15.33;;;7.33;;
13566;SDS011;6855;48.112;11.298;2023-05-25T06:53:11;13.17;;;8.80;;
13566;SDS011;6855;48.112;11.298;2023-05-25T06:55:38;14.60;;;8.43;;
13566;SDS011;6855;48.112;11.298;2023-05-25T06:58:05;12.00;;;8.13;;
13566;SDS011;6855;48.112;11.298;2023-05-25T07:00:32;9.50;;;7.13;;
13566;SDS011;6855;48.112;11.298;2023-05-25T07:03:00;9.63;;;7.50;;
13566;SDS011;6855;48.112;11.298;2023-05-25T07:05:27;13.50;;;7.10;;
13566;SDS011;6855;48.112;11.298;2023-05-25T07:07:55;10.13;;;7.37;;
13566;SDS011;6855;48.112;11.298;2023-05-25T07:10:23;13.60;;;8.03;;
13566;SDS011;6855;48.112;11.298;2023-05-25T07:12:50;15.17;;;7.53;;
13566;SDS011;6855;48.112;11.298;2023-05-25T07:15:17;13.10;;;7.90;;
13566;SDS011;6855;48.112;11.298;2023-05-25T07:17:45;14.40;;;8.73;;
13566;SDS011;6855;48.112;11.298;2023-05-25T07:20:12;10.40;;;7.80;;
13566;SDS011;6855;48.112;11.298;2023-05-25T07:22:40;10.43;;;7.20;;
13566;SDS011;6855;48.112;11.298;2023-05-25T07:25:09;11.83;;;8.57;;
13566;SDS011;6855;48.112;11.298;2023-05-25T07:27:36;15.37;;;7.67;;
13566;SDS011;6855;48.112;11.298;2023-05-25T07:30:04;13.23;;;7.80;;
13566;SDS011;6855;48.112;11.298;2023-05-25T07:32:31;14.67;;;7.50;;
13566;SDS011;6855;48.112;11.298;2023-05-25T07:34:58;9.07;;;7.10;;
13566;SDS011;6855;48.112;11.298;2023-05-25T07:37:26;12.77;;;8.50;;
13566;SDS011;6855;48.112;11.298;2023-05-25T07:39:53;14.27;;;8.40;;
13566;SDS011;6855;48.112;11.298;2023-05-25T07:42:22;14.97;;;7.90;;
13566;SDS011;6855;48.112;11.298;2023-05-25T07:44:49;15.40;;;7.80;;
13566;SDS011;6855;48.112;11.298;2023-05-25T07:47:16;14.80;;;8.10;;
13566;SDS011;6855;48.112;11.298;2023-05-25T07:49:43;12.33;;;7.23;;
13566;SDS011;6855;48.112;11.298;2023-05-25T07:52:11;13.30;;;7.20;;
13566;SDS011;6855;48.112;11.298;2023-05-25T07:54:38;12.30;;;7.30;;
13566;SDS011;6855;48.112;11.298;2023-05-25T07:57:05;10.10;;;7.00;;
13566;SDS011;6855;48.112;11.298;2023-05-25T07:59:34;11.27;;;7.60;;
13566;SDS011;6855;48.112;11.298;2023-05-25T08:02:01;16.67;;;7.47;;
13566;SDS011;6855;48.112;11.298;2023-05-25T08:04:29;12.20;;;7.83;;
13566;SDS011;6855;48.112;11.298;2023-05-25T08:06:57;11.20;;;6.97;;
13566;SDS011;6855;48.112;11.298;2023-05-25T08:09:25;11.63;;;7.90;;
13566;SDS011;6855;48.112;11.298;2023-05-25T08:11:52;12.10;;;8.30;;
13566;SDS011;6855;48.112;11.298;2023-05-25T08:14:19;13.50;;;7.43;;
13566;SDS011;6855;48.112;11.298;2023-05-25T08:16:49;9.73;;;7.50;;
13566;SDS011;6855;48.112;11.298;2023-05-25T08:19:17;12.97;;;8.00;;
13566;SDS011;6855;48.112;11.298;2023-05-25T08:21:44;10.77;;;7.40;;
13566;SDS011;6855;48.112;11.298;2023-05-25T08:24:11;11.13;;;8.00;;
13566;SDS011;6855;48.112;11.298;2023-05-25T08:26:38;9.93;;;6.87;;
13566;SDS011;6855;48.112;11.298;2023-05-25T08:29:07;11.47;;;7.27;;
13566;SDS011;6855;48.112;11.298;2023-05-25T08:31:34;13.60;;;7.53;;
13566;SDS011;6855;48.112;11.298;2023-05-25T08:34:03;10.90;;;7.77;;
13566;SDS011;6855;48.112;11.298;2023-05-25T08:36:30;11.43;;;7.57;;
13566;SDS011;6855;48.112;11.298;2023-05-25T08:38:59;11.53;;;7.67;;
13566;SDS011;6855;48.112;11.298;2023-05-25T08:41:27;14.47;;;6.87;;
13566;SDS011;6855;48.112;11.298;2023-05-25T08:43:55;11.13;;;7.60;;
13566;SDS011;6855;48.112;11.298;2023-05-25T08:46:26;14.23;;;7.40;;
13566;SDS011;6855;48.112;11.298;2023-05-25T08:48:55;10.30;;;6.60;;
13566;SDS011;6855;48.112;11.298;2023-05-25T08:51:28;8.47;;;6.20;;
13566;SDS011;6855;48.112;11.298;2023-05-25T08:53:57;20.60;;;6.97;;
13566;SDS011;6855;48.112;11.298;2023-05-25T08:56:25;11.30;;;6.73;;
13566;SDS011;6855;48.112;11.298;2023-05-25T08:58:56;10.13;;;7.13;;
13566;SDS011;6855;48.112;11.298;2023-05-25T09:01:24;8.30;;;6.87;;
13566;SDS011;6855;48.112;11.298;2023-05-25T09:03:52;10.83;;;6.00;;
13566;SDS011;6855;48.112;11.298;2023-05-25T09:06:20;9.30;;;6.90;;
13566;SDS011;6855;48.112;11.298;2023-05-25T09:08:50;8.93;;;7.00;;
13566;SDS011;6855;48.112;11.298;2023-05-25T09:11:17;9.03;;;6.93;;
13566;SDS011;6855;48.112;11.298;2023-05-25T09:13:45;12.40;;;7.33;;
13566;SDS011;6855;48.112;11.298;2023-05-25T09:16:12;8.47;;;6.60;;
13566;SDS011;6855;48.112;11.298;2023-05-25T09:18:39;10.57;;;6.73;;
13566;SDS011;6855;48.112;11.298;2023-05-25T09:21:06;9.00;;;6.73;;
13566;SDS011;6855;48.112;11.298;2023-05-25T09:23:33;13.33;;;7.27;;
13566;SDS011;6855;48.112;11.298;2023-05-25T09:26:02;10.03;;;7.50;;
13566;SDS011;6855;48.112;11.298;2023-05-25T09:28:29;11.13;;;7.20;;
13566;SDS011;6855;48.112;11.298;2023-05-25T09:30:57;11.00;;;7.63;;
13566;SDS011;6855;48.112;11.298;2023-05-25T09:33:24;8.50;;;6.77;;
13566;SDS011;6855;48.112;11.298;2023-05-25T09:35:52;10.43;;;7.87;;
13566;SDS011;6855;48.112;11.298;2023-05-25T09:38:20;12.50;;;7.20;;
13566;SDS011;6855;48.112;11.298;2023-05-25T09:40:48;11.50;;;7.20;;
13566;SDS011;6855;48.112;11.298;2023-05-25T09:43:16;9.33;;;6.80;;
13566;SDS011;6855;48.112;11.298;2023-05-25T09:45:43;10.97;;;6.60;;
13566;SDS011;6855;48.112;11.298;2023-05-25T09:48:10;11.10;;;6.87;;
13566;SDS011;6855;48.112;11.298;2023-05-25T09:50:38;10.07;;;6.90;;
13566;SDS011;6855;48.112;11.298;2023-05-25T09:53:05;10.33;;;6.67;;
13566;SDS011;6855;48.112;11.298;2023-05-25T09:55:33;7.20;;;6.17;;
13566;SDS011;6855;48.112;11.298;2023-05-25T09:58:02;7.27;;;6.40;;
13566;SDS011;6855;48.112;11.298;2023-05-25T10:00:32;10.20;;;6.47;;
13566;SDS011;6855;48.112;11.298;2023-05-25T10:02:59;8.73;;;6.37;;
13566;SDS011;6855;48.112;11.298;2023-05-25T10:05:27;7.73;;;5.93;;
13566;SDS011;6855;48.112;11.298;2023-05-25T10:07:54;7.67;;;6.00;;
13566;SDS011;6855;48.112;11.298;2023-05-25T10:10:21;10.40;;;6.43;;
13566;SDS011;6855;48.112;11.298;2023-05-25T10:12:49;7.87;;;6.23;;
13566;SDS011;6855;48.112;11.298;2023-05-25T10:15:18;10.47;;;5.80;;
13566;SDS011;6855;48.112;11.298;2023-05-25T10:17:51;9.80;;;5.40;;
13566;SDS011;6855;48.112;11.298;2023-05-25T10:20:18;9.23;;;5.70;;
13566;SDS011;6855;48.112;11.298;2023-05-25T10:22:47;13.07;;;5.40;;
13566;SDS011;6855;48.112;11.298;2023-05-25T10:25:20;9.50;;;5.77;;
13566;SDS011;6855;48.112;11.298;2023-05-25T10:27:51;8.47;;;5.97;;
13566;SDS011;6855;48.112;11.298;2023-05-25T10:30:19;6.43;;;5.57;;
13566;SDS011;6855;48.112;11.298;2023-05-25T10:32:48;9.53;;;6.50;;
13566;SDS011;6855;48.112;11.298;2023-05-25T10:35:16;10.40;;;6.10;;
13566;SDS011;6855;48.112;11.298;2023-05-25T10:37:43;8.40;;;6.10;;
13566;SDS011;6855;48.112;11.298;2023-05-25T10:40:11;12.43;;;6.27;;
13566;SDS011;6855;48.112;11.298;2023-05-25T10:42:39;8.30;;;6.20;;
13566;SDS011;6855;48.112;11.298;2023-05-25T10:45:07;9.40;;;5.90;;
13566;SDS011;6855;48.112;11.298;2023-05-25T10:47:37;7.30;;;6.00;;
13566;SDS011;6855;48.112;11.298;2023-05-25T10:50:14;7.07;;;5.63;;
13566;SDS011;6855;48.112;11.298;2023-05-25T10:52:44;8.13;;;6.50;;
13566;SDS011;6855;48.112;11.298;2023-05-25T10:55:11;7.83;;;6.50;;
13566;SDS011;6855;48.112;11.298;2023-05-25T10:57:38;10.50;;;6.07;;
13566;SDS011;6855;48.112;11.298;2023-05-25T11:00:06;11.93;;;6.87;;
13566;SDS011;6855;48.112;11.298;2023-05-25T11:02:46;7.40;;;5.80;;
13566;SDS011;6855;48.112;11.298;2023-05-25T11:05:32;8.17;;;6.20;;
13566;SDS011;6855;48.112;11.298;2023-05-25T11:08:00;9.10;;;6.40;;
13566;SDS011;6855;48.112;11.298;2023-05-25T11:10:44;8.73;;;5.97;;
13566;SDS011;6855;48.112;11.298;2023-05-25T11:13:20;6.70;;;5.50;;
13566;SDS011;6855;48.112;11.298;2023-05-25T11:15:58;9.13;;;5.97;;
13566;SDS011;6855;48.112;11.298;2023-05-25T11:18:36;6.20;;;5.50;;
13566;SDS011;6855;48.112;11.298;2023-05-25T11:21:11;9.50;;;5.90;;
13566;SDS011;6855;48.112;11.298;2023-05-25T11:23:48;6.90;;;5.67;;
13566;SDS011;6855;48.112;11.298;2023-05-25T11:26:18;6.90;;;6.03;;
13566;SDS011;6855;48.112;11.298;2023-05-25T11:28:47;8.50;;;5.43;;
13566;SDS011;6855;48.112;11.298;2023-05-25T11:31:14;12.17;;;6.43;;
13566;SDS011;6855;48.112;11.298;2023-05-25T11:33:41;6.23;;;5.57;;
13566;SDS011;6855;48.112;11.298;2023-05-25T11:36:11;7.63;;;6.10;;
13566;SDS011;6855;48.112;11.298;2023-05-25T11:38:40;6.40;;;5.63;;
13566;SDS011;6855;48.112;11.298;2023-05-25T11:41:14;8.77;;;6.27;;
13566;SDS011;6855;48.112;11.298;2023-05-25T11:43:42;7.93;;;5.80;;
13566;SDS011;6855;48.112;11.298;2023-05-25T11:46:10;6.77;;;5.77;;
13566;SDS011;6855;48.112;11.298;2023-05-25T11:48:41;11.60;;;5.87;;
13566;SDS011;6855;48.112;11.298;2023-05-25T11:51:08;9.23;;;5.70;;
13566;SDS011;6855;48.112;11.298;2023-05-25T11:53:41;10.07;;;6.47;;
13566;SDS011;6855;48.112;11.298;2023-05-25T11:56:09;6.80;;;5.90;;
13566;SDS011;6855;48.112;11.298;2023-05-25T11:58:36;12.40;;;6.30;;
13566;SDS011;6855;48.112;11.298;2023-05-25T12:01:16;9.23;;;6.03;;
13566;SDS011;6855;48.112;11.298;2023-05-25T12:03:44;10.47;;;7.63;;
13566;SDS011;6855;48.112;11.298;2023-05-25T12:06:26;8.87;;;6.53;;
13566;SDS011;6855;48.112;11.298;2023-05-25T12:08:56;9.80;;;6.03;;
13566;SDS011;6855;48.112;11.298;2023-05-25T12:11:27;8.97;;;6.07;;
13566;SDS011;6855;48.112;11.298;2023-05-25T12:13:54;8.00;;;6.03;;
13566;SDS011;6855;48.112;11.298;2023-05-25T12:16:21;10.33;;;6.50;;
13566;SDS011;6855;48.112;11.298;2023-05-25T12:18:49;7.30;;;5.50;;
13566;SDS011;6855;48.112;11.298;2023-05-25T12:21:17;7.83;;;5.73;;
13566;SDS011;6855;48.112;11.298;2023-05-25T12:23:45;5.57;;;4.70;;
13566;SDS011;6855;48.112;11.298;2023-05-25T12:26:13;8.07;;;6.10;;
13566;SDS011;6855;48.112;11.298;2023-05-25T12:28:56;6.70;;;6.10;;
13566;SDS011;6855;48.112;11.298;2023-05-25T12:31:24;6.00;;;4.90;;
13566;SDS011;6855;48.112;11.298;2023-05-25T12:34:02;12.50;;;4.90;;
13566;SDS011;6855;48.112;11.298;2023-05-25T12:36:39;7.33;;;5.80;;
13566;SDS011;6855;48.112;11.298;2023-05-25T12:39:06;7.40;;;6.70;;
13566;SDS011;6855;48.112;11.298;2023-05-25T12:41:48;7.73;;;6.33;;
13566;SDS011;6855;48.112;11.298;2023-05-25T12:44:19;6.17;;;5.50;;
13566;SDS011;6855;48.112;11.298;2023-05-25T12:46:46;11.53;;;6.50;;
13566;SDS011;6855;48.112;11.298;2023-05-25T12:49:23;9.13;;;6.73;;
13566;SDS011;6855;48.112;11.298;2023-05-25T12:51:50;6.80;;;5.80;;
13566;SDS011;6855;48.112;11.298;2023-05-25T12:54:31;9.67;;;6.47;;
13566;SDS011;6855;48.112;11.298;2023-05-25T12:57:00;9.37;;;5.87;;
13566;SDS011;6855;48.112;11.298;2023-05-25T12:59:28;6.87;;;5.90;;
13566;SDS011;6855;48.112;11.298;2023-05-25T13:01:55;11.80;;;6.97;;
13566;SDS011;6855;48.112;11.298;2023-05-25T13:04:22;15.00;;;6.37;;
13566;SDS011;6855;48.112;11.298;2023-05-25T13:06:50;8.93;;;6.00;;
13566;SDS011;6855;48.112;11.298;2023-05-25T13:09:18;7.43;;;6.30;;
13566;SDS011;6855;48.112;11.298;2023-05-25T13:11:45;16.63;;;7.40;;
13566;SDS011;6855;48.112;11.298;2023-05-25T13:14:14;8.30;;;6.30;;
13566;SDS011;6855;48.112;11.298;2023-05-25T13:16:41;8.03;;;5.53;;
13566;SDS011;6855;48.112;11.298;2023-05-25T13:19:08;6.23;;;5.63;;
13566;SDS011;6855;48.112;11.298;2023-05-25T13:21:35;8.20;;;5.67;;
13566;SDS011;6855;48.112;11.298;2023-05-25T13:24:03;7.63;;;5.47;;
13566;SDS011;6855;48.112;11.298;2023-05-25T13:26:30;9.70;;;6.20;;
13566;SDS011;6855;48.112;11.298;2023-05-25T13:28:58;5.77;;;4.93;;
13566;SDS011;6855;48.112;11.298;2023-05-25T13:31:26;6.83;;;5.83;;
13566;SDS011;6855;48.112;11.298;2023-05-25T13:33:53;7.83;;;5.37;;
13566;SDS011;6855;48.112;11.298;2023-05-25T13:36:21;6.13;;;5.50;;
13566;SDS011;6855;48.112;11.298;2023-05-25T13:38:48;9.37;;;5.90;;
13566;SDS011;6855;48.112;11.298;2023-05-25T13:41:15;7.67;;;5.87;;
13566;SDS011;6855;48.112;11.298;2023-05-25T13:43:43;8.67;;;5.63;;
13566;SDS011;6855;48.112;11.298;2023-05-25T13:46:11;9.03;;;6.10;;
13566;SDS011;6855;48.112;11.298;2023-05-25T13:48:39;9.33;;;5.50;;
13566;SDS011;6855;48.112;11.298;2023-05-25T13:51:11;6.60;;;5.67;;
13566;SDS011;6855;48.112;11.298;2023-05-25T13:53:38;6.67;;;5.00;;
13566;SDS011;6855;48.112;11.298;2023-05-25T13:56:06;6.17;;;5.40;;
13566;SDS011;6855;48.112;11.298;2023-05-25T13:58:33;8.67;;;5.40;;
13566;SDS011;6855;48.112;11.298;2023-05-25T14:01:01;7.50;;;5.30;;
13566;SDS011;6855;48.112;11.298;2023-05-25T14:03:28;14.57;;;6.57;;
13566;SDS011;6855;48.112;11.298;2023-05-25T14:05:56;10.43;;;6.57;;
13566;SDS011;6855;48.112;11.298;2023-05-25T14:08:24;12.87;;;6.20;;
13566;SDS011;6855;48.112;11.298;2023-05-25T14:10:51;7.90;;;6.03;;
13566;SDS011;6855;48.112;11.298;2023-05-25T14:13:19;12.67;;;7.10;;
13566;SDS011;6855;48.112;11.298;2023-05-25T14:15:46;10.27;;;6.40;;
13566;SDS011;6855;48.112;11.298;2023-05-25T14:18:13;7.13;;;6.40;;
13566;SDS011;6855;48.112;11.298;2023-05-25T14:20:42;8.63;;;7.33;;
13566;SDS011;6855;48.112;11.298;2023-05-25T14:23:19;12.17;;;6.93;;
13566;SDS011;6855;48.112;11.298;2023-05-25T14:25:48;13.30;;;8.17;;
13566;SDS011;6855;48.112;11.298;2023-05-25T14:28:23;8.70;;;6.53;;
13566;SDS011;6855;48.112;11.298;2023-05-25T14:30:53;7.23;;;5.93;;
13566;SDS011;6855;48.112;11.298;2023-05-25T14:33:20;9.47;;;7.10;;
13566;SDS011;6855;48.112;11.298;2023-05-25T14:35:49;8.33;;;6.63;;
13566;SDS011;6855;48.112;11.298;2023-05-25T14:38:18;10.30;;;7.17;;
13566;SDS011;6855;48.112;11.298;2023-05-25T14:40:45;8.73;;;6.67;;
13566;SDS011;6855;48.112;11.298;2023-05-25T14:43:12;11.57;;;6.47;;
13566;SDS011;6855;48.112;11.298;2023-05-25T14:45:39;10.90;;;7.30;;
13566;SDS011;6855;48.112;11.298;2023-05-25T14:48:10;7.93;;;6.53;;